Time;durP1;ratioP1;P1;durP2;ratioP2;P2;SDS_P1;SDS_P2;PMS_P1;PMS_P2;Temp;Humidity;BMP_temperature;BMP_pressure;BME280_temperature;BME280_humidity;BME280_pressure;Samples;Min_cycle;Max_cycle;Signal;HPM_P1;HPM_P2
2021/10/19 00:02:21;;;;;;;6.43;4.75;;;19.80;59.80;;;;;;10413423;28;20057;-62
2021/10/19 00:07:22;;;;;;;9.05;4.47;;;19.80;59.60;;;;;;10414157;28;20113;-61
2021/10/19 00:12:23;;;;;;;5.78;3.63;;;19.80;59.70;;;;;;10401225;28;20022;-62
2021/10/19 00:17:23;;;;;;;7.85;4.68;;;19.70;60.00;;;;;;10413167;28;20025;-61
2021/10/19 00:22:24;;;;;;;4.97;3.33;;;19.70;59.90;;;;;;10413044;28;20038;-57
2021/10/19 00:27:24;;;;;;;10.30;4.25;;;19.70;59.90;;;;;;10412375;28;20053;-63
2021/10/19 00:32:25;;;;;;;6.13;4.18;;;19.70;59.90;;;;;;10412543;28;20174;-60
2021/10/19 00:37:26;;;;;;;5.00;3.90;;;19.70;59.90;;;;;;10412067;28;20059;-62
2021/10/19 00:42:26;;;;;;;9.07;4.78;;;19.70;59.90;;;;;;10411943;28;20059;-61
2021/10/19 00:47:27;;;;;;;7.65;4.10;;;19.70;59.90;;;;;;10400512;28;20030;-60
2021/10/19 00:52:28;;;;;;;12.98;4.50;;;19.70;60.00;;;;;;10397553;28;20037;-61
2021/10/19 00:57:28;;;;;;;8.02;4.53;;;19.60;59.90;;;;;;10406685;28;20168;-61
2021/10/19 01:02:29;;;;;;;6.80;3.95;;;19.60;60.00;;;;;;10393085;28;20606;-60
2021/10/19 01:07:30;;;;;;;7.03;4.00;;;19.60;60.00;;;;;;10405865;28;20029;-60
2021/10/19 01:12:32;;;;;;;7.03;4.35;;;19.60;59.90;;;;;;10410712;28;20022;-62
2021/10/19 01:17:33;;;;;;;5.28;4.47;;;19.50;59.90;;;;;;10379899;23;20043;-62
2021/10/19 01:22:33;;;;;;;5.55;3.90;;;19.60;60.00;;;;;;10268731;28;20024;-62
2021/10/19 01:27:48;;;;;;;5.10;3.42;;;19.50;59.90;;;;;;10259936;28;20035;-61
2021/10/19 01:32:48;;;;;;;7.15;3.85;;;19.50;60.00;;;;;;10248980;29;20031;-61
2021/10/19 01:37:49;;;;;;;9.82;3.58;;;19.50;59.90;;;;;;10260385;28;20567;-61
2021/10/19 01:42:49;;;;;;;6.90;3.83;;;19.50;60.00;;;;;;10247980;29;20062;-62
2021/10/19 01:47:50;;;;;;;8.88;4.05;;;19.50;59.90;;;;;;10248225;28;20031;-61
2021/10/19 01:52:51;;;;;;;6.18;3.72;;;19.50;59.90;;;;;;10245582;28;20033;-62
2021/10/19 01:57:51;;;;;;;6.18;4.50;;;19.50;59.90;;;;;;10247660;28;20035;-62
2021/10/19 02:02:52;;;;;;;6.30;3.83;;;19.50;59.80;;;;;;10247523;28;20034;-60
2021/10/19 02:07:52;;;;;;;5.13;4.18;;;19.50;59.80;;;;;;10247503;28;20568;-62
2021/10/19 02:12:53;;;;;;;5.63;3.50;;;19.40;59.80;;;;;;10247511;29;20418;-61
2021/10/19 02:17:55;;;;;;;4.97;3.78;;;19.50;59.80;;;;;;10247175;28;20046;-59
2021/10/19 02:22:56;;;;;;;6.45;4.22;;;19.50;59.80;;;;;;10246904;29;20394;-61
2021/10/19 02:27:57;;;;;;;4.78;3.67;;;19.40;59.80;;;;;;10250631;28;20649;-62
2021/10/19 02:32:59;;;;;;;4.88;3.92;;;19.40;59.80;;;;;;10246867;29;20038;-62
2021/10/19 02:37:59;;;;;;;6.50;4.03;;;19.40;59.80;;;;;;10248566;28;20038;-62
2021/10/19 02:43:00;;;;;;;6.63;4.38;;;19.40;59.80;;;;;;10254928;29;20482;-62
2021/10/19 02:48:01;;;;;;;7.68;3.95;;;19.40;59.70;;;;;;10254874;28;20533;-62
2021/10/19 02:53:01;;;;;;;5.95;4.20;;;19.40;59.70;;;;;;10254779;29;20027;-62
2021/10/19 02:58:02;;;;;;;7.30;4.07;;;19.40;59.70;;;;;;10254431;28;20023;-61
2021/10/19 03:03:02;;;;;;;5.47;3.88;;;19.40;59.70;;;;;;10254250;29;20027;-61
2021/10/19 03:08:03;;;;;;;6.80;3.78;;;19.40;59.80;;;;;;10254124;28;20028;-62
2021/10/19 03:13:04;;;;;;;6.75;4.00;;;19.40;59.70;;;;;;10254325;29;20027;-61
2021/10/19 03:18:04;;;;;;;4.55;4.13;;;19.30;59.70;;;;;;10252671;28;20097;-61
2021/10/19 03:23:05;;;;;;;6.53;4.15;;;19.30;59.70;;;;;;10253907;29;20068;-62
2021/10/19 03:28:05;;;;;;;5.38;3.97;;;19.30;59.70;;;;;;10253911;28;20027;-61
2021/10/19 03:33:06;;;;;;;4.90;3.78;;;19.30;59.70;;;;;;10238012;28;20106;-61
2021/10/19 03:38:07;;;;;;;6.03;4.07;;;19.30;59.70;;;;;;10260027;28;20031;-61
2021/10/19 03:43:07;;;;;;;4.78;3.03;;;19.30;59.60;;;;;;10266021;28;20031;-62
2021/10/19 03:48:08;;;;;;;6.22;3.92;;;19.30;59.60;;;;;;10262778;28;20034;-61
2021/10/19 03:53:12;;;;;;;6.00;4.47;;;19.30;59.60;;;;;;10262287;28;20118;-61
2021/10/19 03:58:13;;;;;;;7.53;4.13;;;19.30;59.60;;;;;;10259948;28;20102;-61
2021/10/19 04:03:15;;;;;;;6.40;4.97;;;19.30;59.60;;;;;;10258135;28;20122;-60
2021/10/19 04:08:15;;;;;;;6.53;3.88;;;19.30;59.60;;;;;;10265507;28;20028;-63
2021/10/19 04:13:16;;;;;;;5.30;3.90;;;19.30;59.60;;;;;;10259631;28;20107;-61
2021/10/19 04:18:16;;;;;;;7.13;4.32;;;19.30;59.30;;;;;;10268376;28;20417;-59
2021/10/19 04:23:17;;;;;;;4.75;3.60;;;19.40;59.40;;;;;;10261499;28;20118;-61
2021/10/19 04:28:17;;;;;;;3.70;3.22;;;19.40;59.40;;;;;;10261146;28;20089;-61
2021/10/19 04:33:18;;;;;;;7.13;5.10;;;19.50;59.40;;;;;;10250670;29;20036;-62
2021/10/19 04:38:19;;;;;;;4.55;3.40;;;19.60;59.20;;;;;;10257987;28;20553;-62
2021/10/19 04:43:19;;;;;;;4.28;3.20;;;19.70;59.00;;;;;;10262874;28;20083;-59
2021/10/19 04:48:21;;;;;;;4.97;3.67;;;19.90;58.70;;;;;;10266327;28;20035;-61
2021/10/19 04:53:21;;;;;;;3.97;2.90;;;20.00;58.60;;;;;;10261532;28;20085;-62
2021/10/19 04:58:22;;;;;;;4.03;3.13;;;20.10;58.50;;;;;;10263964;28;20110;-61
2021/10/19 05:03:23;;;;;;;4.53;2.45;;;20.10;58.30;;;;;;10259841;28;20035;-60
2021/10/19 05:08:23;;;;;;;3.95;2.65;;;20.10;58.30;;;;;;10265611;28;20051;-62
2021/10/19 05:13:24;;;;;;;5.13;3.53;;;20.10;58.20;;;;;;10258958;28;20030;-62
2021/10/19 05:18:25;;;;;;;4.80;3.03;;;20.20;58.20;;;;;;10265254;28;20725;-62
2021/10/19 05:23:25;;;;;;;5.78;3.65;;;20.20;58.20;;;;;;10256788;28;20039;-63
2021/10/19 05:28:26;;;;;;;3.67;2.88;;;20.20;58.10;;;;;;10264594;28;20544;-61
2021/10/19 05:33:27;;;;;;;4.70;3.83;;;20.20;58.20;;;;;;10258307;28;20027;-61
2021/10/19 05:38:28;;;;;;;4.22;3.50;;;20.10;58.00;;;;;;10256088;28;20269;-58
2021/10/19 05:43:28;;;;;;;5.18;3.30;;;20.20;58.00;;;;;;10258036;28;20078;-61
2021/10/19 05:48:29;;;;;;;6.93;3.03;;;20.10;57.80;;;;;;10262319;28;20054;-58
2021/10/19 05:53:30;;;;;;;24.02;5.07;;;20.10;57.70;;;;;;10256306;28;20470;-61
2021/10/19 05:58:30;;;;;;;14.57;5.05;;;20.10;57.70;;;;;;10262084;28;20027;-62
2021/10/19 06:03:31;;;;;;;15.25;4.03;;;20.10;58.00;;;;;;10251672;28;20034;-60
2021/10/19 06:08:31;;;;;;;10.25;4.85;;;20.10;57.90;;;;;;10252729;28;20039;-62
2021/10/19 06:13:32;;;;;;;13.30;5.18;;;20.10;58.40;;;;;;10247484;28;20027;-62
2021/10/19 06:18:33;;;;;;;16.42;4.15;;;20.10;58.00;;;;;;10249962;28;20047;-61
2021/10/19 06:23:33;;;;;;;16.10;4.20;;;20.10;58.10;;;;;;10247164;29;20082;-61
2021/10/19 06:28:34;;;;;;;32.67;7.20;;;20.10;58.20;;;;;;10247008;28;20027;-61
2021/10/19 06:33:36;;;;;;;23.80;6.53;;;20.10;58.40;;;;;;10250866;28;20094;-60
2021/10/19 06:38:36;;;;;;;22.80;6.97;;;20.20;58.20;;;;;;10242855;28;20020;-61
2021/10/19 06:43:37;;;;;;;20.98;6.70;;;20.10;58.20;;;;;;10243606;29;20405;-61
2021/10/19 06:48:38;;;;;;;15.15;5.25;;;20.10;58.20;;;;;;10243466;28;20039;-61
2021/10/19 06:53:39;;;;;;;15.65;5.50;;;20.10;58.20;;;;;;10245442;29;20038;-61
2021/10/19 06:58:39;;;;;;;19.80;5.68;;;20.10;58.10;;;;;;10245533;28;20106;-61
2021/10/19 07:03:40;;;;;;;14.48;4.97;;;20.10;58.20;;;;;;10245975;29;20038;-61
2021/10/19 07:08:40;;;;;;;14.23;5.38;;;20.10;58.20;;;;;;10248994;28;20469;-61
2021/10/19 07:13:41;;;;;;;12.32;5.70;;;20.10;58.20;;;;;;10246053;29;20043;-61
2021/10/19 07:18:42;;;;;;;11.43;5.20;;;20.10;58.20;;;;;;10246424;28;20086;-62
2021/10/19 07:23:42;;;;;;;8.50;5.05;;;20.10;58.30;;;;;;10245920;28;20082;-62
2021/10/19 07:28:43;;;;;;;11.10;5.32;;;20.10;58.30;;;;;;10252726;28;20047;-61
2021/10/19 07:33:43;;;;;;;10.80;5.00;;;20.10;58.20;;;;;;10253175;29;20027;-61
2021/10/19 07:38:45;;;;;;;9.30;3.90;;;20.10;58.20;;;;;;10254082;28;20030;-60
2021/10/19 07:43:45;;;;;;;13.43;5.10;;;20.10;58.10;;;;;;10253434;28;20414;-58
2021/10/19 07:48:46;;;;;;;15.82;4.78;;;20.10;58.00;;;;;;10253876;28;20032;-60
2021/10/19 07:53:47;;;;;;;12.85;5.35;;;20.10;58.10;;;;;;10235680;29;20058;-60
2021/10/19 07:58:48;;;;;;;8.13;3.72;;;20.10;58.30;;;;;;10251894;28;20031;-61
2021/10/19 08:03:48;;;;;;;7.40;4.63;;;20.10;58.40;;;;;;10252843;29;20106;-62
2021/10/19 08:08:49;;;;;;;6.68;3.78;;;20.10;58.40;;;;;;10252162;28;20035;-62
2021/10/19 08:13:53;;;;;;;14.93;5.03;;;20.10;58.40;;;;;;10251324;28;20508;-60
2021/10/19 08:18:54;;;;;;;8.30;4.32;;;20.10;58.50;;;;;;10250746;28;20035;-61
2021/10/19 08:23:55;;;;;;;9.80;3.95;;;20.10;58.60;;;;;;10249682;29;20030;-60
2021/10/19 08:29:01;;;;;;;11.65;4.20;;;20.00;58.30;;;;;;10249100;28;20117;-61
2021/10/19 08:34:02;;;;;;;8.70;4.82;;;20.00;58.40;;;;;;10250256;29;20525;-62
2021/10/19 08:39:02;;;;;;;10.75;4.53;;;20.00;58.60;;;;;;10249233;28;20115;-61
2021/10/19 08:44:04;;;;;;;8.77;3.90;;;20.00;58.60;;;;;;10248776;29;20490;-62
2021/10/19 08:49:05;;;;;;;6.65;4.00;;;20.00;58.60;;;;;;10249291;28;20058;-61
2021/10/19 08:54:09;;;;;;;8.38;4.32;;;20.00;58.50;;;;;;10248917;29;20515;-62
2021/10/19 08:59:12;;;;;;;6.85;3.20;;;20.00;58.60;;;;;;10252248;28;20043;-61
2021/10/19 09:04:13;;;;;;;6.05;3.92;;;20.00;58.60;;;;;;10249681;29;20042;-60
2021/10/19 09:09:16;;;;;;;6.90;3.75;;;20.00;58.60;;;;;;10263954;28;20023;-64
2021/10/19 09:14:19;;;;;;;4.88;3.42;;;20.00;58.70;;;;;;10262234;28;20072;-63
2021/10/19 09:19:21;;;;;;;9.98;3.42;;;20.00;58.60;;;;;;10266873;28;21324;-64
2021/10/19 09:24:28;;;;;;;6.82;3.95;;;20.00;58.70;;;;;;10248230;28;20046;-63
2021/10/19 09:29:33;;;;;;;10.48;3.80;;;20.00;58.40;;;;;;10246263;28;20030;-62
2021/10/19 09:34:36;;;;;;;8.65;3.70;;;20.00;58.50;;;;;;10249628;28;20121;-62
2021/10/19 09:39:40;;;;;;;9.63;3.30;;;20.00;58.60;;;;;;10245709;28;20553;-63
2021/10/19 09:44:51;;;;;;;5.68;2.80;;;20.00;58.60;;;;;;10247433;29;20235;-63
2021/10/19 09:49:53;;;;;;;5.22;3.40;;;20.10;58.70;;;;;;10246877;28;20674;-62
2021/10/19 09:54:54;;;;;;;6.68;3.88;;;20.10;58.60;;;;;;10253595;28;20103;-62
2021/10/19 09:59:56;;;;;;;5.00;3.13;;;20.00;58.60;;;;;;10249930;28;20063;-63
2021/10/19 10:04:59;;;;;;;6.20;3.50;;;20.00;58.60;;;;;;10248130;28;20479;-62
2021/10/19 10:10:03;;;;;;;9.07;3.40;;;20.00;58.60;;;;;;10250339;28;20657;-61
2021/10/19 10:15:05;;;;;;;4.57;3.05;;;20.00;58.50;;;;;;10248173;28;20019;-62
2021/10/19 10:20:08;;;;;;;5.13;3.25;;;20.00;58.70;;;;;;10246211;28;20027;-62
2021/10/19 10:25:13;;;;;;;7.30;2.30;;;20.00;58.70;;;;;;10257128;28;20102;-62
2021/10/19 10:30:25;;;;;;;8.00;2.72;;;20.00;58.90;;;;;;10250256;28;20023;-62
2021/10/19 10:35:25;;;;;;;6.57;2.80;;;20.00;58.80;;;;;;10249945;28;20030;-63
2021/10/19 10:40:33;;;;;;;4.35;2.85;;;20.00;58.80;;;;;;10239842;28;20644;-63
2021/10/19 10:45:34;;;;;;;4.70;2.88;;;19.90;59.10;;;;;;10265552;28;20405;-62
2021/10/19 10:50:37;;;;;;;4.80;2.75;;;20.00;59.10;;;;;;10254475;28;20115;-62
2021/10/19 10:55:44;;;;;;;4.60;2.55;;;19.90;59.20;;;;;;10249564;28;20035;-63
2021/10/19 11:00:45;;;;;;;8.00;3.97;;;19.90;59.50;;;;;;10257732;28;20031;-62
2021/10/19 11:05:54;;;;;;;3.42;2.42;;;19.90;59.40;;;;;;10263646;28;20045;-61
2021/10/19 11:11:08;;;;;;;6.55;2.65;;;19.90;59.30;;;;;;10264743;28;20032;-63
2021/10/19 11:16:09;;;;;;;4.13;2.75;;;19.90;59.30;;;;;;10263903;28;20026;-63
2021/10/19 11:21:10;;;;;;;5.00;3.28;;;19.90;59.40;;;;;;10267842;28;20078;-62
2021/10/19 11:26:11;;;;;;;5.63;2.63;;;19.90;59.20;;;;;;10259235;28;20090;-60
2021/10/19 11:31:13;;;;;;;3.80;2.25;;;19.90;59.30;;;;;;10268149;28;20074;-63
2021/10/19 11:36:15;;;;;;;4.82;2.97;;;19.90;59.40;;;;;;10261992;28;20032;-63
2021/10/19 11:41:18;;;;;;;2.47;1.85;;;19.90;59.30;;;;;;10252461;29;20395;-62
2021/10/19 11:46:21;;;;;;;5.85;2.30;;;19.80;59.90;;;;;;10263472;28;20027;-63
2021/10/19 11:51:24;;;;;;;5.18;2.40;;;19.80;59.50;;;;;;10250999;28;20558;-62
2021/10/19 11:56:25;;;;;;;3.40;2.40;;;19.80;59.40;;;;;;10251072;28;20050;-65
2021/10/19 12:01:26;;;;;;;3.35;1.70;;;19.80;59.60;;;;;;10255050;28;20035;-62
2021/10/19 12:06:29;;;;;;;2.30;1.70;;;19.80;59.60;;;;;;10252099;28;20557;-64
2021/10/19 12:11:30;;;;;;;2.78;1.58;;;19.70;59.70;;;;;;10250912;28;20023;-62
2021/10/19 12:16:32;;;;;;;2.65;1.83;;;19.80;59.70;;;;;;10251493;28;20043;-62
2021/10/19 12:21:33;;;;;;;3.95;1.80;;;19.70;59.60;;;;;;10251260;29;20055;-63
2021/10/19 12:26:33;;;;;;;4.18;1.95;;;19.70;59.60;;;;;;10251296;28;20110;-63
2021/10/19 12:31:34;;;;;;;2.42;1.70;;;19.70;59.60;;;;;;10250941;28;20086;-63
2021/10/19 12:36:36;;;;;;;4.75;1.85;;;19.70;59.70;;;;;;10252342;28;20027;-63
2021/10/19 12:41:36;;;;;;;2.55;1.83;;;19.60;59.70;;;;;;10250597;29;20402;-63
2021/10/19 12:46:37;;;;;;;2.58;1.48;;;19.60;59.70;;;;;;10249728;28;20031;-60
2021/10/19 12:51:38;;;;;;;3.05;1.30;;;19.60;59.80;;;;;;10248335;28;20031;-62
2021/10/19 12:56:41;;;;;;;5.25;1.50;;;19.60;59.70;;;;;;10249754;28;20082;-62
2021/10/19 13:01:42;;;;;;;3.92;1.80;;;19.60;59.70;;;;;;10249834;29;20060;-63
2021/10/19 13:06:43;;;;;;;2.25;1.40;;;19.50;59.80;;;;;;10249549;28;20114;-63
2021/10/19 13:11:44;;;;;;;3.05;1.48;;;19.50;59.80;;;;;;10249752;29;20019;-63
2021/10/19 13:21:52;;;;;;;2.05;1.45;;;19.50;59.80;;;;;;10325234;28;20174;-60
2021/10/19 13:26:53;;;;;;;2.13;1.35;;;19.50;59.80;;;;;;10311095;28;20520;-61
2021/10/19 13:31:54;;;;;;;1.80;1.00;;;19.40;59.80;;;;;;10328622;28;20027;-60
2021/10/19 13:36:54;;;;;;;2.80;1.25;;;19.40;59.80;;;;;;10328147;28;20030;-59
2021/10/19 13:41:55;;;;;;;3.42;1.42;;;19.50;59.70;;;;;;10328434;28;20096;-61
2021/10/19 13:46:55;;;;;;;9.98;2.17;;;19.50;59.80;;;;;;10327162;28;20056;-59
2021/10/19 13:51:57;;;;;;;7.95;1.70;;;19.50;59.90;;;;;;10327723;28;20445;-60
2021/10/19 13:56:58;;;;;;;9.25;2.40;;;19.50;60.00;;;;;;10328250;28;20439;-58
2021/10/19 14:01:59;;;;;;;10.35;2.10;;;19.40;60.20;;;;;;10327774;28;20037;-61
2021/10/19 14:07:00;;;;;;;13.32;1.75;;;19.40;60.40;;;;;;10289144;28;20027;-62
2021/10/19 14:12:01;;;;;;;8.43;3.47;;;19.50;60.30;;;;;;10296411;28;20022;-62
2021/10/19 14:17:03;;;;;;;8.95;1.60;;;19.50;60.30;;;;;;10296123;28;20022;-61
2021/10/19 14:22:07;;;;;;;21.15;2.95;;;19.60;60.40;;;;;;10325208;28;20058;-60
2021/10/19 14:27:08;;;;;;;9.82;2.22;;;19.60;60.20;;;;;;10326210;28;20022;-61
2021/10/19 14:32:09;;;;;;;9.13;2.05;;;19.70;60.40;;;;;;10326427;28;20105;-62
2021/10/19 14:37:09;;;;;;;11.52;2.15;;;19.70;60.30;;;;;;10334923;28;20035;-63
2021/10/19 14:42:11;;;;;;;6.63;2.30;;;19.90;60.20;;;;;;10335442;28;20266;-62
2021/10/19 14:47:12;;;;;;;7.63;1.73;;;20.10;60.00;;;;;;10335303;28;20023;-62
2021/10/19 14:52:13;;;;;;;7.50;1.98;;;20.20;59.70;;;;;;10334328;28;20026;-61
2021/10/19 14:57:13;;;;;;;3.50;1.90;;;20.30;59.70;;;;;;10335024;28;20053;-62
2021/10/19 15:02:14;;;;;;;10.27;2.45;;;20.50;59.60;;;;;;10334706;28;20030;-62
2021/10/19 15:07:14;;;;;;;7.55;1.98;;;20.50;59.50;;;;;;10334641;28;20422;-59
2021/10/19 15:12:15;;;;;;;7.68;1.60;;;20.60;59.60;;;;;;10333800;28;20027;-57
2021/10/19 15:17:16;;;;;;;10.05;2.42;;;20.60;59.60;;;;;;10334121;28;20058;-61
2021/10/19 15:22:16;;;;;;;4.30;1.65;;;20.70;59.50;;;;;;10335437;28;20033;-59
2021/10/19 15:27:18;;;;;;;4.70;1.50;;;20.80;59.40;;;;;;10335748;28;20030;-56
2021/10/19 15:32:19;;;;;;;7.05;1.15;;;20.80;59.40;;;;;;10334521;28;20026;-60
2021/10/19 15:37:20;;;;;;;4.75;1.27;;;20.80;59.40;;;;;;10331984;28;20110;-58
2021/10/19 15:42:21;;;;;;;3.80;1.55;;;20.90;59.30;;;;;;10329522;28;20035;-61
2021/10/19 15:47:21;;;;;;;6.65;1.73;;;20.80;59.20;;;;;;10330065;28;20042;-62
2021/10/19 15:52:22;;;;;;;9.70;1.50;;;20.80;59.00;;;;;;10330718;28;20034;-58
2021/10/19 15:57:23;;;;;;;6.53;1.55;;;20.80;59.10;;;;;;10330000;28;20827;-59
2021/10/19 16:02:23;;;;;;;9.63;1.85;;;20.80;59.20;;;;;;10330583;28;20453;-60
2021/10/19 16:07:24;;;;;;;9.52;1.52;;;20.80;59.30;;;;;;10328481;28;20038;-62
2021/10/19 16:12:25;;;;;;;9.27;2.70;;;20.80;59.30;;;;;;10308022;28;20050;-62
2021/10/19 16:17:26;;;;;;;10.25;2.33;;;20.80;59.30;;;;;;10317324;28;20505;-58
2021/10/19 16:22:26;;;;;;;19.92;3.38;;;20.70;59.40;;;;;;10312902;28;20026;-60
2021/10/19 16:27:27;;;;;;;9.90;2.83;;;20.70;59.70;;;;;;10320805;28;20034;-59
2021/10/19 16:32:27;;;;;;;19.85;2.80;;;20.60;59.60;;;;;;10329496;28;20519;-61
2021/10/19 16:37:28;;;;;;;7.95;2.28;;;20.60;59.80;;;;;;10328317;28;20038;-62
2021/10/19 16:42:28;;;;;;;13.85;2.58;;;20.70;59.90;;;;;;10329539;28;20416;-58
2021/10/19 16:47:29;;;;;;;17.92;3.38;;;20.60;59.90;;;;;;10315735;28;20045;-46
2021/10/19 16:52:30;;;;;;;18.50;4.13;;;20.70;60.10;;;;;;10327996;28;20444;-51
2021/10/19 16:57:31;;;;;;;21.42;5.53;;;20.70;60.60;;;;;;10327974;28;20117;-50
2021/10/19 17:02:32;;;;;;;22.00;4.70;;;20.70;60.90;;;;;;10328200;28;20445;-47
2021/10/19 17:07:33;;;;;;;19.08;4.60;;;20.70;61.30;;;;;;10326342;28;20065;-50
2021/10/19 17:12:33;;;;;;;14.07;4.30;;;20.70;60.90;;;;;;10322891;28;20010;-49
2021/10/19 17:17:35;;;;;;;13.88;3.55;;;20.60;60.80;;;;;;10324720;28;20030;-49
2021/10/19 17:22:35;;;;;;;13.57;3.38;;;20.70;60.90;;;;;;10279482;28;20436;-50
2021/10/19 17:27:36;;;;;;;11.50;3.25;;;20.60;61.10;;;;;;10326214;28;20037;-49
2021/10/19 17:32:37;;;;;;;14.93;4.07;;;20.70;61.40;;;;;;10324895;28;20081;-49
2021/10/19 17:37:38;;;;;;;26.55;5.53;;;20.70;61.30;;;;;;10326240;28;20085;-53
2021/10/19 17:42:38;;;;;;;10.65;2.75;;;20.70;61.30;;;;;;10326002;28;20088;-49
2021/10/19 17:47:44;;;;;;;13.40;2.97;;;20.70;61.50;;;;;;10322149;28;20564;-48
2021/10/19 17:52:45;;;;;;;6.05;3.13;;;20.60;61.90;;;;;;10321372;28;20030;-45
2021/10/19 17:57:46;;;;;;;11.05;4.10;;;20.60;62.10;;;;;;10326569;28;20022;-46
2021/10/19 18:02:46;;;;;;;3.70;1.40;;;20.60;62.20;;;;;;10326390;28;20025;-53
2021/10/19 18:07:50;;;;;;;5.07;1.80;;;20.60;62.00;;;;;;10325661;28;20720;-51
2021/10/19 18:12:52;;;;;;;8.15;2.40;;;20.60;62.80;;;;;;10326177;28;20101;-54
2021/10/19 18:17:53;;;;;;;3.83;1.75;;;20.50;62.10;;;;;;10302427;28;20039;-51
2021/10/19 18:22:56;;;;;;;7.05;1.50;;;20.50;61.70;;;;;;10320393;28;20026;-52
2021/10/19 18:27:56;;;;;;;6.50;1.35;;;20.50;61.80;;;;;;10317956;28;20023;-49
2021/10/19 18:32:57;;;;;;;9.75;1.60;;;20.50;61.70;;;;;;10327231;28;20018;-48
2021/10/19 18:37:58;;;;;;;5.95;1.40;;;20.50;61.90;;;;;;10318643;28;20524;-53
2021/10/19 18:42:59;;;;;;;5.65;1.50;;;20.50;61.90;;;;;;10326913;28;20102;-53
2021/10/19 18:48:00;;;;;;;6.18;1.77;;;20.50;62.00;;;;;;10325692;28;20026;-52
2021/10/19 18:53:07;;;;;;;5.22;1.33;;;20.40;62.70;;;;;;10308050;28;20029;-54
2021/10/19 18:58:08;;;;;;;1.60;0.90;;;20.50;62.50;;;;;;10326246;28;20039;-54
2021/10/19 19:03:09;;;;;;;2.10;1.17;;;20.50;62.00;;;;;;10325784;28;20073;-55
2021/10/19 19:08:10;;;;;;;3.00;0.80;;;20.50;62.10;;;;;;10325784;28;20033;-55
2021/10/19 19:13:11;;;;;;;1.92;0.90;;;20.50;62.20;;;;;;10325349;28;20039;-45
2021/10/19 19:18:13;;;;;;;6.35;1.90;;;20.50;62.20;;;;;;10325432;28;20073;-53
2021/10/19 19:23:14;;;;;;;3.58;0.93;;;20.60;62.70;;;;;;10330945;28;20126;-52
2021/10/19 19:28:14;;;;;;;4.70;1.30;;;20.60;62.10;;;;;;10332378;28;20026;-50
2021/10/19 19:33:15;;;;;;;3.65;0.90;;;20.70;62.00;;;;;;10333154;28;20019;-55
2021/10/19 19:38:16;;;;;;;6.85;1.08;;;20.70;62.00;;;;;;10330810;28;20022;-55
2021/10/19 19:43:16;;;;;;;8.05;1.50;;;20.70;62.10;;;;;;10298976;28;20035;-55
2021/10/19 19:48:17;;;;;;;6.72;1.08;;;20.70;62.00;;;;;;10290234;28;20760;-52
2021/10/19 19:53:18;;;;;;;9.13;1.58;;;20.70;62.00;;;;;;10290311;28;20031;-53
2021/10/19 19:58:18;;;;;;;5.22;1.08;;;20.70;62.00;;;;;;10308262;28;20421;-53
2021/10/19 20:03:20;;;;;;;6.82;1.42;;;20.70;62.00;;;;;;10320701;28;20038;-53
2021/10/19 20:08:21;;;;;;;7.50;1.30;;;20.70;61.90;;;;;;10326565;28;20027;-56
2021/10/19 20:13:22;;;;;;;5.03;1.35;;;20.70;61.90;;;;;;10327224;28;20037;-51
2021/10/19 20:18:22;;;;;;;5.30;1.50;;;20.70;61.80;;;;;;10308447;28;20042;-49
2021/10/19 20:23:23;;;;;;;12.43;1.35;;;20.70;61.80;;;;;;10318241;28;20045;-51
2021/10/19 20:28:23;;;;;;;10.15;1.70;;;20.70;61.80;;;;;;10327344;28;20030;-49
2021/10/19 20:33:24;;;;;;;6.30;1.63;;;20.70;61.80;;;;;;10327589;28;20030;-52
2021/10/19 20:38:25;;;;;;;4.18;1.38;;;20.60;61.60;;;;;;10327836;28;20038;-50
2021/10/19 20:43:26;;;;;;;4.63;1.30;;;20.60;61.60;;;;;;10327757;28;20038;-55
2021/10/19 20:48:26;;;;;;;8.10;1.45;;;20.70;61.60;;;;;;10328206;28;20056;-49
2021/10/19 20:53:27;;;;;;;11.35;1.83;;;20.60;61.60;;;;;;10327628;28;20022;-51
2021/10/19 20:58:27;;;;;;;2.97;1.23;;;20.60;61.50;;;;;;10327525;28;20023;-50
2021/10/19 21:03:28;;;;;;;4.38;1.30;;;20.60;61.60;;;;;;10327375;28;20023;-52
2021/10/19 21:08:29;;;;;;;6.13;1.58;;;20.60;61.50;;;;;;10326912;28;20510;-53
2021/10/19 21:13:29;;;;;;;3.58;1.70;;;20.60;61.50;;;;;;10326867;28;20526;-50
2021/10/19 21:18:32;;;;;;;6.05;1.85;;;20.50;61.50;;;;;;10314717;28;20053;-51
2021/10/19 21:23:34;;;;;;;5.95;1.20;;;20.60;61.70;;;;;;10328591;28;20401;-46
2021/10/19 21:28:35;;;;;;;4.97;1.27;;;20.50;61.70;;;;;;10330262;28;20019;-46
2021/10/19 21:33:36;;;;;;;3.83;1.08;;;20.50;61.70;;;;;;10330241;28;20085;-48
2021/10/19 21:38:36;;;;;;;9.38;2.70;;;20.50;61.80;;;;;;10332559;23;20104;-52
2021/10/19 21:43:37;;;;;;;5.05;1.20;;;20.50;61.90;;;;;;10291735;28;20366;-54
2021/10/19 21:48:38;;;;;;;3.67;1.25;;;20.40;62.10;;;;;;10287820;28;20054;-52
2021/10/19 21:53:39;;;;;;;7.70;2.17;;;20.40;62.80;;;;;;10295017;28;20485;-48
2021/10/19 21:58:39;;;;;;;4.15;1.20;;;20.40;62.50;;;;;;10287977;28;20067;-51
2021/10/19 22:03:40;;;;;;;4.32;1.15;;;20.40;62.60;;;;;;10324341;28;20037;-54
2021/10/19 22:08:40;;;;;;;4.90;1.10;;;20.30;62.70;;;;;;10325888;28;20030;-55
2021/10/19 22:13:42;;;;;;;4.88;1.52;;;20.30;62.90;;;;;;10327185;28;20102;-49
2021/10/19 22:18:43;;;;;;;9.02;1.48;;;20.30;62.90;;;;;;10318206;28;20031;-54
2021/10/19 22:28:50;;;;;;;4.93;1.50;;;20.20;63.00;;;;;;10324777;28;20444;-56
2021/10/19 22:33:51;;;;;;;4.53;1.23;;;20.20;63.10;;;;;;10326105;28;20022;-55
2021/10/19 22:38:52;;;;;;;4.32;1.20;;;20.20;63.10;;;;;;10325033;28;20118;-52
2021/10/19 22:43:53;;;;;;;3.42;1.20;;;20.20;63.20;;;;;;10326146;28;20037;-54
2021/10/19 22:48:53;;;;;;;5.22;1.55;;;20.20;63.20;;;;;;10325059;28;20053;-55
2021/10/19 22:53:54;;;;;;;6.00;1.38;;;20.10;63.20;;;;;;10325755;28;20054;-54
2021/10/19 22:58:54;;;;;;;5.55;1.38;;;20.10;63.30;;;;;;10332766;28;20022;-57
2021/10/19 23:03:55;;;;;;;7.20;1.45;;;20.10;63.30;;;;;;10333604;28;20026;-57
2021/10/19 23:08:55;;;;;;;9.15;1.67;;;20.10;63.40;;;;;;10332429;28;20030;-57
2021/10/19 23:13:56;;;;;;;3.95;1.33;;;20.10;63.40;;;;;;10333064;28;20023;-57
2021/10/19 23:18:57;;;;;;;3.92;1.10;;;20.10;63.40;;;;;;10331493;28;20041;-56
2021/10/19 23:23:57;;;;;;;4.05;1.90;;;20.10;63.40;;;;;;10332651;28;20152;-57
2021/10/19 23:28:58;;;;;;;4.45;1.50;;;20.00;63.40;;;;;;10331766;28;20041;-57
2021/10/19 23:33:58;;;;;;;3.38;1.75;;;20.00;63.30;;;;;;10332385;28;20523;-57
2021/10/19 23:38:59;;;;;;;4.80;1.92;;;20.00;63.40;;;;;;10330511;28;20045;-57
2021/10/19 23:43:59;;;;;;;10.27;1.67;;;20.00;63.40;;;;;;10332356;28;20045;-56
2021/10/19 23:49:00;;;;;;;3.05;1.15;;;20.00;63.40;;;;;;10330421;28;20040;-57
2021/10/19 23:54:02;;;;;;;4.40;1.73;;;19.90;63.30;;;;;;10332528;28;20026;-57
2021/10/19 23:59:02;;;;;;;4.65;1.45;;;19.90;63.40;;;;;;10332903;28;20037;-57
